createdAt,value
2023-05-17T00:00:57.335Z,286.58
2023-05-17T00:03:23.983Z,277.27
2023-05-17T00:05:50.607Z,417.00
2023-05-17T00:08:17.229Z,246.88
2023-05-17T00:10:43.881Z,309.75
2023-05-17T00:13:10.798Z,369.48
2023-05-17T00:15:37.494Z,196.77
2023-05-17T00:18:04.635Z,444.67
2023-05-17T00:20:32.504Z,225.38
2023-05-17T00:23:00.826Z,445.10
2023-05-17T00:25:27.837Z,223.05
2023-05-17T00:27:55.093Z,214.75
2023-05-17T00:30:21.706Z,284.73
2023-05-17T00:32:48.551Z,344.25
2023-05-17T00:35:15.504Z,265.08
2023-05-17T00:37:47.657Z,238.30
2023-05-17T00:40:15.824Z,245.77
2023-05-17T00:42:42.773Z,429.02
2023-05-17T00:45:10.061Z,189.05
2023-05-17T00:47:36.980Z,228.75
2023-05-17T00:50:04.921Z,204.95
2023-05-17T00:52:31.828Z,520.40
2023-05-17T00:54:58.869Z,165.27
2023-05-17T00:57:25.759Z,221.77
2023-05-17T00:59:52.812Z,143.35
2023-05-17T01:02:19.532Z,217.48
2023-05-17T01:04:49.893Z,365.52
2023-05-17T01:07:17.887Z,180.47
2023-05-17T01:09:46.849Z,90.97
2023-05-17T01:12:25.130Z,211.40
2023-05-17T01:15:06.878Z,199.50
2023-05-17T01:17:50.458Z,209.13
2023-05-17T01:20:26.894Z,588.28
2023-05-17T01:23:26.598Z,354.92
2023-05-17T01:26:11.711Z,206.80
2023-05-17T01:28:39.004Z,211.82
2023-05-17T01:31:06.550Z,197.52
2023-05-17T01:33:34.119Z,226.27
2023-05-17T01:36:00.961Z,195.63
2023-05-17T01:38:27.722Z,214.68
2023-05-17T01:41:30.038Z,273.55
2023-05-17T01:44:06.878Z,232.45
2023-05-17T01:46:39.490Z,290.83
2023-05-17T01:49:11.453Z,230.80
2023-05-17T01:52:08.611Z,160.90
2023-05-17T01:54:41.357Z,185.70
2023-05-17T01:57:09.888Z,236.75
2023-05-17T01:59:38.579Z,195.40
2023-05-17T02:02:08.805Z,241.98
2023-05-17T02:04:36.373Z,158.25
2023-05-17T02:07:03.568Z,148.23
2023-05-17T02:09:30.918Z,121.75
2023-05-17T02:11:57.675Z,140.07
2023-05-17T02:14:24.305Z,250.82
2023-05-17T02:16:51.070Z,149.18
2023-05-17T02:19:18.103Z,201.10
2023-05-17T02:21:45.504Z,92.60
2023-05-17T02:24:12.210Z,168.65
2023-05-17T02:26:42.720Z,157.43
2023-05-17T02:29:11.093Z,173.27
2023-05-17T02:31:37.797Z,137.80
2023-05-17T02:34:04.451Z,352.40
2023-05-17T02:36:31.237Z,184.60
2023-05-17T02:38:59.027Z,159.63
2023-05-17T02:41:25.678Z,175.73
2023-05-17T02:43:52.312Z,187.60
2023-05-17T02:46:18.879Z,199.55
2023-05-17T02:48:45.494Z,173.98
2023-05-17T02:51:12.218Z,231.25
2023-05-17T02:53:41.320Z,197.93
2023-05-17T02:56:08.520Z,276.25
2023-05-17T02:58:35.489Z,238.13
2023-05-17T03:01:02.230Z,268.90
2023-05-17T03:03:30.286Z,205.80
2023-05-17T03:06:02.694Z,240.32
2023-05-17T03:08:29.700Z,224.70
2023-05-17T03:10:57.357Z,290.55
2023-05-17T03:13:24.005Z,239.60
2023-05-17T03:15:50.598Z,300.33
2023-05-17T03:18:17.977Z,223.07
2023-05-17T03:20:44.753Z,249.48
2023-05-17T03:23:11.317Z,336.20
2023-05-17T03:25:47.552Z,239.52
2023-05-17T03:28:14.192Z,166.02
2023-05-17T03:30:41.189Z,204.68
2023-05-17T03:33:29.116Z,201.10
2023-05-17T03:36:50.049Z,178.38
2023-05-17T03:40:11.103Z,335.23
2023-05-17T03:43:32.061Z,195.85
2023-05-17T03:46:54.076Z,211.02
2023-05-17T03:50:15.099Z,315.88
2023-05-17T03:53:36.165Z,65.45
2023-05-17T03:56:57.079Z,64.50
2023-05-17T04:00:18.065Z,98.60
2023-05-17T04:03:44.108Z,69.82
2023-05-17T04:07:07.082Z,183.27
2023-05-17T04:10:28.085Z,103.47
2023-05-17T04:13:51.102Z,49.88
2023-05-17T04:17:12.097Z,64.53
2023-05-17T04:20:34.087Z,164.75
2023-05-17T04:23:55.114Z,69.45
2023-05-17T04:27:16.104Z,80.72
2023-05-17T04:30:31.156Z,175.57
2023-05-17T04:33:52.116Z,169.00
2023-05-17T04:37:13.163Z,65.40
2023-05-17T04:40:37.117Z,115.18
2023-05-17T04:43:51.099Z,76.28
2023-05-17T04:47:18.080Z,78.07
2023-05-17T04:50:39.164Z,147.32
2023-05-17T04:54:00.123Z,82.85
2023-05-17T04:57:22.105Z,76.97
2023-05-17T05:00:46.122Z,124.68
2023-05-17T05:04:07.382Z,70.57
2023-05-17T05:07:23.089Z,71.68
2023-05-17T05:10:46.150Z,107.45
2023-05-17T05:14:09.110Z,69.88
2023-05-17T05:17:30.277Z,71.22
2023-05-17T05:20:51.088Z,141.45
2023-05-17T05:24:12.147Z,63.55
2023-05-17T05:27:33.124Z,72.43
2023-05-17T05:30:54.114Z,68.03
2023-05-17T05:34:21.117Z,76.18
2023-05-17T05:37:42.173Z,81.28
2023-05-17T05:41:03.161Z,62.72
2023-05-17T05:47:39.168Z,85.07
2023-05-17T05:51:00.319Z,64.75
2023-05-17T05:54:21.103Z,98.93
2023-05-17T05:57:42.169Z,78.53
2023-05-17T06:01:06.146Z,70.75
2023-05-17T06:04:36.818Z,170.23
2023-05-17T06:07:58.154Z,62.63
2023-05-17T06:11:19.164Z,182.20
2023-05-17T06:14:40.164Z,45.55
2023-05-17T06:18:01.171Z,177.73
2023-05-17T06:21:23.239Z,64.95
2023-05-17T06:24:44.157Z,74.57
2023-05-17T06:28:05.139Z,85.00
2023-05-17T06:31:20.386Z,87.30
2023-05-17T06:34:42.194Z,57.85
2023-05-17T06:38:03.149Z,48.75
2023-05-17T06:41:24.146Z,176.53
2023-05-17T06:44:45.160Z,70.60
2023-05-17T06:48:06.329Z,73.47
2023-05-17T06:51:27.121Z,199.07
2023-05-17T06:54:41.183Z,69.40
2023-05-17T06:58:02.161Z,67.78
2023-05-17T07:01:23.152Z,281.65
2023-05-17T07:04:44.205Z,117.88
2023-05-17T07:08:05.199Z,52.70
2023-05-17T07:11:26.404Z,78.17
2023-05-17T07:14:47.135Z,104.03
2023-05-17T07:18:08.359Z,62.20
2023-05-17T07:21:30.204Z,121.47
2023-05-17T07:24:51.177Z,97.53
2023-05-17T07:28:12.183Z,60.50
2023-05-17T07:31:33.333Z,187.57
2023-05-17T07:34:55.492Z,66.37
2023-05-17T07:38:17.177Z,73.40
2023-05-17T07:41:38.160Z,190.75
2023-05-17T07:44:59.168Z,67.82
2023-05-17T07:48:20.579Z,66.30
2023-05-17T07:51:41.221Z,277.10
2023-05-17T07:55:02.491Z,54.85
2023-05-17T07:58:26.232Z,66.40
2023-05-17T08:01:47.189Z,119.57
2023-05-17T08:05:08.213Z,60.10
2023-05-17T08:08:29.209Z,58.25
2023-05-17T08:11:52.211Z,95.10
2023-05-17T08:15:13.496Z,64.50
2023-05-17T08:18:34.354Z,175.70
2023-05-17T08:21:56.263Z,122.13
2023-05-17T08:28:45.185Z,171.38
2023-05-17T08:32:07.230Z,61.47
2023-05-17T08:35:29.110Z,108.50
2023-05-17T08:38:51.222Z,92.88
2023-05-17T08:42:12.488Z,64.28
2023-05-17T08:45:33.210Z,111.10
2023-05-17T08:48:57.268Z,174.90
2023-05-17T08:52:20.222Z,87.00
2023-05-17T08:55:43.723Z,126.32
2023-05-17T08:59:07.210Z,178.20
2023-05-17T09:02:28.256Z,57.88
2023-05-17T09:05:50.248Z,57.30
2023-05-17T09:09:11.223Z,185.63
2023-05-17T09:12:32.205Z,52.70
2023-05-17T09:15:57.239Z,94.80
2023-05-17T09:19:19.299Z,92.75
2023-05-17T09:22:40.240Z,55.00
2023-05-17T09:26:02.224Z,59.78
2023-05-17T09:29:24.234Z,124.18
2023-05-17T09:32:39.249Z,60.83
2023-05-17T09:36:00.245Z,56.65
2023-05-17T09:39:21.275Z,105.37
2023-05-17T09:42:46.226Z,53.87
2023-05-17T09:46:11.256Z,65.85
2023-05-17T09:49:32.256Z,80.95
2023-05-17T09:52:53.313Z,43.53
2023-05-17T09:56:15.255Z,69.17
2023-05-17T09:59:36.217Z,58.88
2023-05-17T10:02:59.423Z,43.93
2023-05-17T10:06:38.972Z,75.93
2023-05-17T10:09:59.288Z,41.03
2023-05-17T10:13:22.272Z,82.10
2023-05-17T10:16:43.277Z,108.63
2023-05-17T10:20:04.509Z,49.63
2023-05-17T10:23:25.298Z,57.70
2023-05-17T10:26:46.231Z,208.90
2023-05-17T10:30:07.289Z,50.43
2023-05-17T10:33:22.401Z,67.10
2023-05-17T10:36:43.351Z,97.18
2023-05-17T10:40:04.281Z,43.33
2023-05-17T10:43:25.228Z,58.10
2023-05-17T10:46:46.256Z,91.93
2023-05-17T10:50:07.289Z,50.03
2023-05-17T10:53:28.274Z,90.60
2023-05-17T10:56:53.270Z,178.80
2023-05-17T11:00:19.329Z,64.10
2023-05-17T11:03:41.255Z,118.68
2023-05-17T11:07:04.831Z,49.13
2023-05-17T11:10:27.575Z,99.55
2023-05-17T11:13:48.279Z,169.47
2023-05-17T11:17:10.368Z,61.50
2023-05-17T11:20:40.475Z,123.95
2023-05-17T11:24:03.363Z,276.17
2023-05-17T11:27:25.326Z,457.35
2023-05-17T11:30:46.277Z,743.63
2023-05-17T11:34:07.343Z,615.13
2023-05-17T11:37:39.284Z,613.87
2023-05-17T11:44:21.338Z,556.95
2023-05-17T11:47:42.358Z,652.27
2023-05-17T11:51:04.390Z,658.53
2023-05-17T11:57:46.285Z,631.17
2023-05-17T12:01:08.334Z,702.97
2023-05-17T12:04:39.465Z,613.88
2023-05-17T12:07:40.190Z,651.92
2023-05-17T12:10:07.434Z,622.35
2023-05-17T12:12:34.043Z,613.45
2023-05-17T12:15:01.527Z,775.08
2023-05-17T12:17:35.715Z,680.25
2023-05-17T12:20:10.009Z,660.58
2023-05-17T12:22:54.802Z,633.90
2023-05-17T12:25:25.183Z,768.47
2023-05-17T12:27:52.241Z,573.73
2023-05-17T12:30:19.216Z,705.50
2023-05-17T12:32:46.650Z,542.22
2023-05-17T12:35:13.666Z,733.13
2023-05-17T12:37:40.336Z,580.22
2023-05-17T12:40:08.146Z,733.60
2023-05-17T12:42:34.752Z,686.05
2023-05-17T12:45:01.641Z,694.92
2023-05-17T12:47:31.864Z,587.17
2023-05-17T12:50:00.390Z,586.20
2023-05-17T12:52:33.618Z,559.28
2023-05-17T12:55:04.395Z,676.05
2023-05-17T12:57:31.163Z,592.60
2023-05-17T12:59:57.731Z,569.17
2023-05-17T13:02:24.692Z,626.55
2023-05-17T13:04:51.787Z,672.97
2023-05-17T13:07:23.800Z,560.00
2023-05-17T13:09:50.721Z,551.67
2023-05-17T13:12:24.265Z,566.15
2023-05-17T13:14:52.374Z,664.28
2023-05-17T13:17:23.239Z,566.88
2023-05-17T13:19:50.201Z,657.65
2023-05-17T13:22:20.348Z,573.83
2023-05-17T13:24:47.012Z,696.10
2023-05-17T13:27:13.786Z,553.22
2023-05-17T13:29:41.983Z,543.15
2023-05-17T13:32:12.068Z,654.33
2023-05-17T13:34:40.088Z,616.67
2023-05-17T13:37:11.617Z,672.72
2023-05-17T13:39:41.325Z,637.90
2023-05-17T13:42:08.434Z,728.35
2023-05-17T13:44:35.893Z,648.13
2023-05-17T13:47:03.342Z,775.28
2023-05-17T13:49:30.040Z,638.90
2023-05-17T13:51:57.640Z,611.55
2023-05-17T13:54:27.598Z,726.00
2023-05-17T13:56:57.374Z,691.85
2023-05-17T13:59:24.018Z,606.22
2023-05-17T14:01:50.643Z,628.70
2023-05-17T14:04:17.482Z,612.88
2023-05-17T14:06:45.356Z,582.85
2023-05-17T14:09:13.408Z,584.55
2023-05-17T14:11:40.157Z,608.25
2023-05-17T14:14:06.896Z,656.97
2023-05-17T14:16:33.544Z,690.55
2023-05-17T14:19:04.307Z,735.80
2023-05-17T14:21:32.701Z,706.97
2023-05-17T14:23:59.356Z,757.38
2023-05-17T14:26:26.594Z,697.08
2023-05-17T14:28:53.625Z,771.67
2023-05-17T14:31:20.362Z,677.22
2023-05-17T14:33:46.995Z,804.05
2023-05-17T14:36:14.321Z,701.53
2023-05-17T14:38:41.057Z,719.08
2023-05-17T14:41:07.982Z,692.08
2023-05-17T14:43:34.635Z,698.13
2023-05-17T14:46:01.489Z,723.90
2023-05-17T14:48:28.890Z,693.22
2023-05-17T14:50:55.649Z,685.97
2023-05-17T14:53:23.315Z,683.45
2023-05-17T14:55:49.956Z,673.95
2023-05-17T14:58:16.573Z,691.15
2023-05-17T15:00:48.554Z,661.58
2023-05-17T15:03:21.867Z,661.28
2023-05-17T15:05:55.885Z,658.38
2023-05-17T15:08:22.812Z,677.58
2023-05-17T15:10:52.555Z,647.55
2023-05-17T15:13:19.123Z,673.75
2023-05-17T15:15:46.793Z,653.67
2023-05-17T15:18:17.123Z,682.58
2023-05-17T15:20:43.901Z,742.00
2023-05-17T15:23:10.761Z,639.85
2023-05-17T15:25:37.541Z,699.55
2023-05-17T15:28:04.350Z,633.35
2023-05-17T15:30:31.025Z,511.70
2023-05-17T15:32:58.446Z,339.50
2023-05-17T15:35:26.424Z,603.53
2023-05-17T15:37:53.637Z,505.65
2023-05-17T15:40:24.560Z,635.80
2023-05-17T15:42:52.488Z,501.90
2023-05-17T15:45:21.358Z,625.92
2023-05-17T15:47:49.281Z,616.38
2023-05-17T15:50:16.259Z,586.28
2023-05-17T15:52:43.130Z,642.88
2023-05-17T15:55:10.538Z,743.40
2023-05-17T15:57:41.092Z,708.95
2023-05-17T16:00:08.577Z,629.58
2023-05-17T16:02:35.225Z,638.83
2023-05-17T16:05:04.113Z,643.25
2023-05-17T16:07:31.232Z,570.60
2023-05-17T16:09:57.920Z,582.65
2023-05-17T16:12:24.597Z,599.05
2023-05-17T16:14:52.531Z,644.55
2023-05-17T16:17:19.688Z,541.05
2023-05-17T16:19:49.508Z,655.50
2023-05-17T16:22:16.394Z,504.58
2023-05-17T16:24:43.392Z,583.97
2023-05-17T16:27:10.154Z,481.73
2023-05-17T16:29:39.924Z,497.75
2023-05-17T16:32:07.700Z,483.23
2023-05-17T16:34:34.351Z,477.02
2023-05-17T16:37:00.936Z,500.02
2023-05-17T16:39:28.680Z,470.58
2023-05-17T16:41:55.543Z,609.90
2023-05-17T16:44:22.156Z,464.90
2023-05-17T16:46:48.876Z,494.17
2023-05-17T16:49:15.549Z,454.83
2023-05-17T16:51:42.307Z,541.38
2023-05-17T16:54:09.239Z,551.97
2023-05-17T16:56:35.749Z,441.40
2023-05-17T16:59:02.789Z,524.00
2023-05-17T17:01:29.448Z,437.77
2023-05-17T17:03:56.677Z,440.75
2023-05-17T17:06:23.437Z,462.00
2023-05-17T17:08:50.029Z,458.35
2023-05-17T17:11:18.716Z,489.83
2023-05-17T17:13:45.304Z,426.63
2023-05-17T17:16:12.065Z,465.25
2023-05-17T17:18:38.699Z,426.67
2023-05-17T17:21:07.841Z,454.73
2023-05-17T17:23:36.574Z,433.67
2023-05-17T17:26:03.177Z,458.27
2023-05-17T17:28:29.958Z,468.40
2023-05-17T17:30:56.808Z,421.40
2023-05-17T17:33:23.594Z,513.70
2023-05-17T17:35:50.831Z,451.58
2023-05-17T17:38:17.437Z,415.83
2023-05-17T17:40:44.216Z,433.50
2023-05-17T17:43:10.938Z,403.13
2023-05-17T17:45:37.846Z,547.30
2023-05-17T17:48:04.719Z,418.75
2023-05-17T17:50:31.823Z,380.95
2023-05-17T17:52:59.148Z,549.88
2023-05-17T17:55:26.255Z,528.92
2023-05-17T17:57:52.853Z,457.05
2023-05-17T18:00:20.089Z,483.45
2023-05-17T18:02:46.793Z,445.48
2023-05-17T18:05:13.447Z,508.20
2023-05-17T18:07:40.043Z,433.13
2023-05-17T18:10:07.441Z,452.10
2023-05-17T18:12:34.154Z,471.70
2023-05-17T18:15:01.391Z,615.08
2023-05-17T18:17:28.618Z,568.90
2023-05-17T18:19:55.881Z,611.47
2023-05-17T18:22:22.539Z,548.63
2023-05-17T18:24:49.548Z,662.20
2023-05-17T18:27:16.842Z,538.00
2023-05-17T18:29:43.631Z,630.97
2023-05-17T18:32:10.429Z,502.50
2023-05-17T18:34:37.502Z,592.50
2023-05-17T18:37:04.722Z,548.28
2023-05-17T18:39:31.537Z,689.03
2023-05-17T18:41:58.153Z,614.08
2023-05-17T18:44:25.025Z,608.70
2023-05-17T18:46:52.098Z,519.95
2023-05-17T18:49:18.822Z,525.65
2023-05-17T18:51:45.799Z,552.03
2023-05-17T18:54:12.539Z,535.10
2023-05-17T18:56:39.372Z,530.13
2023-05-17T18:59:06.091Z,633.70
2023-05-17T19:01:32.742Z,593.70
2023-05-17T19:03:59.477Z,695.83
2023-05-17T19:06:27.695Z,576.85
2023-05-17T19:08:58.041Z,557.60
2023-05-17T19:11:24.797Z,543.50
2023-05-17T19:13:51.500Z,497.00
2023-05-17T19:16:18.589Z,482.85
2023-05-17T19:18:45.369Z,512.67
2023-05-17T19:21:12.477Z,485.98
2023-05-17T19:23:39.396Z,524.20
2023-05-17T19:26:06.280Z,572.40
2023-05-17T19:28:35.550Z,624.92
2023-05-17T19:31:05.320Z,495.55
2023-05-17T19:33:34.009Z,519.70
2023-05-17T19:36:01.159Z,525.30
2023-05-17T19:38:28.113Z,493.83
2023-05-17T19:40:54.921Z,690.78
2023-05-17T19:43:21.594Z,427.30
2023-05-17T19:45:48.238Z,581.38
2023-05-17T19:48:14.927Z,443.50
2023-05-17T19:50:41.598Z,504.73
2023-05-17T19:53:08.229Z,522.33
2023-05-17T19:55:36.348Z,564.63
2023-05-17T19:58:03.538Z,490.40
2023-05-17T20:00:32.598Z,427.25
2023-05-17T20:02:59.540Z,406.17
2023-05-17T20:05:27.171Z,519.17
2023-05-17T20:07:53.912Z,595.63
2023-05-17T20:10:21.054Z,490.30
2023-05-17T20:12:48.236Z,632.67
2023-05-17T20:15:14.823Z,466.45
2023-05-17T20:17:41.992Z,498.90
2023-05-17T20:20:09.398Z,501.42
2023-05-17T20:22:37.316Z,409.55
2023-05-17T20:25:04.352Z,469.15
2023-05-17T20:27:31.175Z,421.45
2023-05-17T20:29:58.041Z,437.13
2023-05-17T20:32:24.769Z,424.38
2023-05-17T20:34:51.391Z,514.15
2023-05-17T20:37:18.208Z,406.23
2023-05-17T20:39:45.187Z,461.80
2023-05-17T20:42:18.176Z,432.67
2023-05-17T20:44:45.213Z,514.17
2023-05-17T20:47:11.903Z,478.23
2023-05-17T20:49:38.486Z,502.35
2023-05-17T20:52:05.458Z,536.78
2023-05-17T20:54:32.566Z,546.75
2023-05-17T20:56:59.871Z,493.70
2023-05-17T20:59:26.859Z,590.35
2023-05-17T21:01:53.640Z,531.58
2023-05-17T21:04:20.725Z,506.85
2023-05-17T21:06:47.476Z,508.23
2023-05-17T21:09:14.535Z,564.65
2023-05-17T21:11:41.163Z,488.92
2023-05-17T21:14:08.134Z,719.05
2023-05-17T21:16:35.507Z,548.75
2023-05-17T21:19:02.350Z,716.20
2023-05-17T21:21:28.910Z,496.45
2023-05-17T21:23:55.648Z,508.90
2023-05-17T21:26:23.069Z,448.30
2023-05-17T21:28:49.741Z,506.35
2023-05-17T21:31:16.634Z,542.78
2023-05-17T21:33:43.354Z,571.88
2023-05-17T21:36:09.982Z,556.53
2023-05-17T21:38:36.567Z,431.10
2023-05-17T21:41:03.440Z,604.10
2023-05-17T21:43:30.058Z,455.40
2023-05-17T21:45:56.816Z,627.05
2023-05-17T21:48:23.405Z,402.55
2023-05-17T21:50:50.003Z,404.50
2023-05-17T21:53:16.582Z,390.83
2023-05-17T21:58:12.894Z,383.15
2023-05-17T22:00:39.692Z,604.97
2023-05-17T22:03:06.660Z,402.88
2023-05-17T22:05:33.319Z,400.50
2023-05-17T22:07:59.916Z,336.00
2023-05-17T22:10:26.469Z,358.17
2023-05-17T22:12:54.148Z,419.77
2023-05-17T22:15:21.899Z,420.60
2023-05-17T22:17:52.881Z,355.83
2023-05-17T22:22:50.759Z,314.67
2023-05-17T22:25:17.862Z,413.42
2023-05-17T22:27:45.367Z,349.50
2023-05-17T22:30:12.281Z,406.73
2023-05-17T22:32:40.077Z,532.65
2023-05-17T22:35:07.224Z,411.38
2023-05-17T22:37:33.900Z,423.45
2023-05-17T22:40:00.855Z,334.80
2023-05-17T22:42:28.031Z,538.45
2023-05-17T22:44:54.737Z,500.52
2023-05-17T22:47:23.224Z,390.40
2023-05-17T22:49:52.571Z,407.67
2023-05-17T22:52:19.738Z,507.98
2023-05-17T22:54:46.314Z,389.08
2023-05-17T22:57:12.960Z,382.13
2023-05-17T22:59:39.718Z,435.63
2023-05-17T23:02:06.422Z,385.00
2023-05-17T23:04:33.289Z,395.15
2023-05-17T23:07:03.505Z,489.42
2023-05-17T23:09:30.318Z,361.85
2023-05-17T23:11:59.372Z,536.47
2023-05-17T23:14:25.956Z,362.45
2023-05-17T23:16:52.627Z,352.58
2023-05-17T23:19:20.800Z,417.65
2023-05-17T23:21:49.366Z,432.88
2023-05-17T23:24:15.995Z,384.45
2023-05-17T23:26:42.598Z,372.85
2023-05-17T23:29:10.621Z,338.83
2023-05-17T23:31:37.609Z,452.33
2023-05-17T23:34:06.679Z,385.52
2023-05-17T23:36:33.280Z,533.28
2023-05-17T23:38:59.820Z,352.15
2023-05-17T23:41:26.426Z,384.35
2023-05-17T23:43:53.044Z,275.15
2023-05-17T23:46:20.050Z,367.88
2023-05-17T23:48:52.786Z,344.15
2023-05-17T23:51:20.043Z,365.10
2023-05-17T23:53:48.672Z,572.08
2023-05-17T23:56:17.131Z,366.42
2023-05-17T23:58:44.458Z,398.33
